Time;durP1;ratioP1;P1;durP2;ratioP2;P2;SDS_P1;SDS_P2;PMS_P1;PMS_P2;Temp;Humidity;BMP_temperature;BMP_pressure;BME280_temperature;BME280_humidity;BME280_pressure;Samples;Min_cycle;Max_cycle;Signal;HPM_P1;HPM_P2
2021/03/04 00:01:26;;;;;;;29.67;18.08;;;;;;;5.10;73.27;101218.00;5000450;28;20045;-71
2021/03/04 00:03:52;;;;;;;31.42;18.02;;;;;;;5.14;72.74;101224.22;5003195;28;20062;-71
2021/03/04 00:06:17;;;;;;;30.83;17.20;;;;;;;5.15;72.61;101216.41;5003258;28;20457;-71
2021/03/04 00:08:42;;;;;;;33.03;18.95;;;;;;;5.15;72.55;101215.53;5001579;28;20459;-71
2021/03/04 00:11:08;;;;;;;34.42;20.63;;;;;;;5.18;72.97;101220.84;5000130;28;20456;-71
2021/03/04 00:13:33;;;;;;;31.13;18.98;;;;;;;5.19;72.74;101218.28;5000837;28;20444;-71
2021/03/04 00:15:58;;;;;;;34.85;19.10;;;;;;;5.23;73.12;101214.00;5003190;28;20559;-70
2021/03/04 00:18:24;;;;;;;35.28;19.67;;;;;;;5.25;72.65;101213.19;5003406;28;20045;-71
2021/03/04 00:20:49;;;;;;;33.45;18.90;;;;;;;5.23;73.00;101217.50;4983204;28;20069;-70
2021/03/04 00:23:15;;;;;;;34.20;19.73;;;;;;;5.26;72.89;101207.09;4999885;28;20050;-71
2021/03/04 00:25:40;;;;;;;30.20;17.77;;;;;;;5.29;72.83;101208.91;5001088;28;20042;-70
2021/03/04 00:28:05;;;;;;;30.23;18.70;;;;;;;5.24;72.80;101214.03;5003182;28;20128;-71
2021/03/04 00:30:30;;;;;;;29.55;17.98;;;;;;;5.28;72.49;101201.91;5002957;28;20069;-71
2021/03/04 00:32:56;;;;;;;34.88;20.70;;;;;;;5.30;72.60;101201.97;4999973;28;20042;-70
2021/03/04 00:35:22;;;;;;;34.75;19.30;;;;;;;5.25;72.44;101205.34;4999650;28;20027;-70
2021/03/04 00:37:47;;;;;;;35.05;19.60;;;;;;;5.24;73.00;101203.56;5002629;28;20073;-70
2021/03/04 00:40:16;;;;;;;30.63;18.83;;;;;;;5.24;72.64;101198.34;5004456;28;20484;-71
2021/03/04 00:42:42;;;;;;;32.95;18.90;;;;;;;5.25;72.79;101194.00;5005219;28;20042;-70
2021/03/04 00:45:12;;;;;;;28.63;19.27;;;;;;;5.25;72.65;101192.25;5003380;28;20049;-71
2021/03/04 00:47:38;;;;;;;29.67;17.48;;;;;;;5.30;72.63;101183.66;5004872;28;20049;-70
2021/03/04 00:50:06;;;;;;;31.23;18.73;;;;;;;5.31;72.81;101185.41;5006926;28;20117;-71
2021/03/04 00:52:31;;;;;;;31.13;18.90;;;;;;;5.26;72.80;101188.78;5006415;28;20473;-71
2021/03/04 00:54:56;;;;;;;32.70;19.45;;;;;;;5.29;73.12;101177.50;5003451;28;20145;-71
2021/03/04 00:57:22;;;;;;;32.92;20.00;;;;;;;5.33;72.74;101171.50;5003397;28;20496;-71
2021/03/04 00:59:47;;;;;;;29.77;18.05;;;;;;;5.34;72.95;101169.78;5005824;28;20050;-70
2021/03/04 01:02:12;;;;;;;31.15;18.75;;;;;;;5.41;72.58;101167.34;5006723;28;20026;-71
2021/03/04 01:04:38;;;;;;;33.13;19.48;;;;;;;5.38;72.44;101175.13;5005356;28;20049;-71
2021/03/04 01:07:03;;;;;;;30.50;19.90;;;;;;;5.35;72.64;101166.31;5007229;28;20038;-71
2021/03/04 01:09:28;;;;;;;32.47;20.17;;;;;;;5.28;72.88;101168.75;5006600;28;20046;-71
2021/03/04 01:11:53;;;;;;;35.38;21.38;;;;;;;5.22;72.61;101160.78;5006497;28;20488;-71
2021/03/04 01:14:19;;;;;;;33.22;19.88;;;;;;;5.14;72.85;101150.97;5006515;28;20103;-71
2021/03/04 01:16:44;;;;;;;37.08;18.98;;;;;;;5.10;73.28;101157.81;5004107;28;20484;-70
2021/03/04 01:19:10;;;;;;;30.48;17.83;;;;;;;5.08;73.30;101151.66;5003043;28;20501;-71
2021/03/04 01:21:35;;;;;;;32.15;18.33;;;;;;;5.08;73.33;101141.19;5003836;28;20045;-70
2021/03/04 01:24:01;;;;;;;35.25;18.05;;;;;;;5.11;73.13;101143.00;5006314;28;20034;-71
2021/03/04 01:26:26;;;;;;;30.30;18.95;;;;;;;5.10;73.17;101136.00;5005831;28;20113;-71
2021/03/04 01:28:51;;;;;;;34.58;18.90;;;;;;;5.09;72.96;101137.75;5003247;28;20039;-71
2021/03/04 01:31:17;;;;;;;32.28;19.60;;;;;;;5.11;73.02;101140.38;5003093;28;20042;-71
2021/03/04 01:33:42;;;;;;;35.20;21.70;;;;;;;5.09;73.42;101132.53;5004558;28;20038;-71
2021/03/04 01:36:07;;;;;;;32.03;19.73;;;;;;;5.10;73.08;101128.16;5005794;28;20053;-70
2021/03/04 01:38:33;;;;;;;35.30;22.42;;;;;;;5.13;73.04;101125.63;5005536;28;20045;-71
2021/03/04 01:40:58;;;;;;;38.40;20.83;;;;;;;5.09;73.13;101122.06;5002475;28;20031;-71
2021/03/04 01:43:23;;;;;;;34.65;19.40;;;;;;;5.04;73.15;101119.31;5002545;28;20575;-70
2021/03/04 01:45:49;;;;;;;37.63;23.08;;;;;;;5.01;73.35;101115.75;5004842;28;20038;-70
2021/03/04 01:48:15;;;;;;;34.17;21.00;;;;;;;5.00;73.41;101121.81;5006046;28;20447;-71
2021/03/04 01:50:40;;;;;;;40.65;23.55;;;;;;;4.97;73.06;101121.72;5003900;28;20049;-71
2021/03/04 01:53:05;;;;;;;35.13;20.70;;;;;;;4.97;73.62;101124.34;5002510;28;20038;-70
2021/03/04 01:55:31;;;;;;;35.95;22.85;;;;;;;4.96;73.33;101117.34;5002253;28;20101;-71
2021/03/04 01:57:57;;;;;;;38.08;22.92;;;;;;;4.94;73.34;101109.44;5005947;28;20484;-71
2021/03/04 02:00:23;;;;;;;35.22;21.20;;;;;;;4.92;73.40;101105.03;5005843;28;20029;-71
2021/03/04 02:03:31;;;;;;;35.72;20.17;;;;;;;4.83;73.50;101110.91;5002956;28;20049;-71
2021/03/04 02:05:57;;;;;;;34.97;20.27;;;;;;;4.78;73.86;101105.56;5005274;28;20117;-71
2021/03/04 02:08:41;;;;;;;39.10;23.88;;;;;;;4.72;74.29;101102.78;4988036;28;20572;-70
2021/03/04 02:11:29;;;;;;;35.80;21.90;;;;;;;4.74;74.23;101098.50;5002128;28;20042;-71
2021/03/04 02:14:01;;;;;;;32.42;21.00;;;;;;;4.75;74.03;101097.63;5002114;28;20489;-71
2021/03/04 02:16:45;;;;;;;33.38;19.90;;;;;;;4.68;73.64;101090.47;5001581;28;20038;-71
2021/03/04 02:19:27;;;;;;;35.47;20.33;;;;;;;4.64;74.10;101088.63;5001982;28;20046;-71
2021/03/04 02:21:58;;;;;;;33.27;19.67;;;;;;;4.66;74.05;101084.28;5005119;28;20041;-70
2021/03/04 02:24:52;;;;;;;38.17;21.92;;;;;;;4.63;74.42;101078.13;5005161;28;20322;-70
2021/03/04 02:27:20;;;;;;;34.45;20.30;;;;;;;4.63;74.39;101076.38;4982420;28;20042;-70
2021/03/04 02:29:50;;;;;;;37.22;22.92;;;;;;;4.64;74.81;101070.31;5002893;28;20120;-71
2021/03/04 02:32:21;;;;;;;36.38;22.45;;;;;;;4.63;74.68;101068.53;5001705;28;20524;-71
2021/03/04 02:34:54;;;;;;;34.38;20.92;;;;;;;4.66;74.61;101063.38;5003912;28;20053;-71
2021/03/04 02:37:24;;;;;;;35.08;20.80;;;;;;;4.60;74.97;101065.84;5004659;28;20607;-71
2021/03/04 02:39:52;;;;;;;36.63;22.33;;;;;;;4.58;75.26;101067.53;5002189;28;20038;-71
2021/03/04 02:42:21;;;;;;;37.17;21.10;;;;;;;4.57;75.09;101057.94;5001562;28;20112;-70
2021/03/04 02:44:53;;;;;;;34.45;20.25;;;;;;;4.54;75.03;101063.97;5003719;28;20120;-71
2021/03/04 02:47:20;;;;;;;39.65;23.55;;;;;;;4.49;75.44;101062.06;5004546;28;20129;-70
2021/03/04 02:49:46;;;;;;;37.10;22.38;;;;;;;4.48;75.35;101062.88;5002289;28;20034;-70
2021/03/04 02:52:13;;;;;;;34.90;21.55;;;;;;;4.50;75.67;101054.25;5001391;28;20040;-71
2021/03/04 02:54:40;;;;;;;36.85;21.58;;;;;;;4.52;75.63;101051.69;5002568;28;20092;-71
2021/03/04 02:57:09;;;;;;;35.30;21.92;;;;;;;4.52;75.42;101051.69;5004349;28;20120;-71
2021/03/04 02:59:38;;;;;;;41.78;22.25;;;;;;;4.56;75.48;101059.66;5003812;28;20037;-71
2021/03/04 03:02:05;;;;;;;36.97;21.40;;;;;;;4.57;75.27;101048.34;5000875;28;20088;-70
2021/03/04 03:04:37;;;;;;;39.80;23.65;;;;;;;4.58;75.35;101044.91;5000690;28;20101;-71
2021/03/04 03:07:04;;;;;;;37.22;22.80;;;;;;;4.60;75.58;101047.53;5004144;28;20026;-70
2021/03/04 03:09:31;;;;;;;36.92;21.15;;;;;;;4.64;75.24;101038.94;5004119;28;20488;-71
2021/03/04 03:11:58;;;;;;;33.97;21.23;;;;;;;4.64;75.59;101033.72;5000976;28;20505;-71
2021/03/04 03:14:23;;;;;;;34.90;21.38;;;;;;;4.69;75.08;101046.88;5000964;28;20042;-71
2021/03/04 03:16:48;;;;;;;37.30;21.45;;;;;;;4.71;75.09;101039.97;5008373;28;20034;-70
2021/03/04 03:19:15;;;;;;;37.78;22.52;;;;;;;4.76;75.04;101035.75;5000637;28;20042;-71
2021/03/04 03:21:40;;;;;;;35.88;21.58;;;;;;;4.80;74.69;101037.63;5002166;28;20044;-71
2021/03/04 03:24:06;;;;;;;33.63;20.77;;;;;;;4.87;74.63;101041.25;5003999;28;20037;-70
2021/03/04 03:26:32;;;;;;;35.38;20.95;;;;;;;4.93;74.53;101031.84;5003296;28;20061;-71
2021/03/04 03:28:57;;;;;;;38.53;22.73;;;;;;;4.98;74.63;101029.34;5000515;28;20037;-71
2021/03/04 03:31:26;;;;;;;38.13;21.50;;;;;;;5.06;74.68;101038.25;5000436;28;20042;-70
2021/03/04 03:33:53;;;;;;;34.65;20.15;;;;;;;5.16;73.93;101035.03;5003355;28;20065;-70
2021/03/04 03:36:20;;;;;;;33.53;21.17;;;;;;;5.26;74.01;101036.97;5003454;28;20044;-71
2021/03/04 03:38:46;;;;;;;36.28;21.52;;;;;;;5.37;73.78;101038.97;5001575;28;20064;-70
2021/03/04 03:41:11;;;;;;;47.13;22.23;;;;;;;5.47;73.26;101026.13;5000244;28;20509;-70
2021/03/04 03:43:37;;;;;;;38.38;21.92;;;;;;;5.50;73.14;101025.31;5001151;28;20093;-70
2021/03/04 03:46:04;;;;;;;35.70;22.17;;;;;;;5.53;73.17;101027.09;5003161;28;20128;-70
2021/03/04 03:48:30;;;;;;;39.42;22.27;;;;;;;5.51;72.85;101024.47;5067985;22;20053;-73
2021/03/04 03:50:57;;;;;;;36.08;20.52;;;;;;;5.47;72.76;101025.25;5023254;28;20033;-73
2021/03/04 03:53:25;;;;;;;38.55;22.27;;;;;;;5.42;72.95;101022.53;5031555;28;20044;-73
2021/03/04 03:55:53;;;;;;;38.45;22.95;;;;;;;5.39;73.34;101011.09;5013469;28;20120;-72
2021/03/04 03:58:22;;;;;;;34.72;22.45;;;;;;;5.35;73.07;101009.28;5031320;28;20073;-73
2021/03/04 04:00:48;;;;;;;37.53;21.27;;;;;;;5.27;73.07;101012.59;5031280;28;20038;-73
2021/03/04 04:03:14;;;;;;;35.45;20.52;;;;;;;5.23;73.69;101002.91;5031325;28;20503;-73
2021/03/04 04:05:41;;;;;;;37.38;21.83;;;;;;;5.18;73.66;101012.38;5030983;28;20029;-73
2021/03/04 04:08:06;;;;;;;35.53;21.63;;;;;;;5.17;73.64;101002.75;5031044;28;20116;-73
2021/03/04 04:10:35;;;;;;;46.42;26.80;;;;;;;5.13;73.85;101006.13;5031169;28;20115;-73
2021/03/04 04:13:01;;;;;;;40.75;24.98;;;;;;;5.09;74.06;101006.94;5031233;28;20033;-73
2021/03/04 04:15:29;;;;;;;41.22;26.25;;;;;;;5.02;73.94;100999.78;5030899;28;20033;-73
2021/03/04 04:18:01;;;;;;;41.30;24.75;;;;;;;4.97;73.89;100990.94;5028895;28;20046;-73
2021/03/04 04:20:28;;;;;;;37.65;22.90;;;;;;;4.94;73.97;100988.25;5031052;28;20041;-73
2021/03/04 04:22:55;;;;;;;37.90;22.65;;;;;;;4.94;74.13;100986.50;5031037;28;20167;-73
2021/03/04 04:25:21;;;;;;;35.28;22.67;;;;;;;4.91;74.25;100986.44;5009922;28;20053;-73
2021/03/04 04:27:49;;;;;;;41.28;23.48;;;;;;;4.92;74.58;100979.47;5029914;28;20487;-73
2021/03/04 04:30:15;;;;;;;41.00;23.65;;;;;;;4.93;74.73;100981.25;5010243;28;20454;-73
2021/03/04 04:32:40;;;;;;;38.83;25.15;;;;;;;4.94;74.85;100980.41;5028973;28;20503;-73
2021/03/04 04:35:06;;;;;;;44.78;25.83;;;;;;;4.92;74.80;100980.34;5030793;28;20030;-73
2021/03/04 04:37:31;;;;;;;46.60;25.52;;;;;;;4.90;75.01;100975.94;5030888;28;20026;-73
2021/03/04 04:39:57;;;;;;;41.78;26.42;;;;;;;4.93;74.94;100963.84;5013256;28;20065;-73
2021/03/04 04:42:22;;;;;;;49.00;26.23;;;;;;;4.95;74.55;100969.09;5013713;28;20034;-73
2021/03/04 04:44:48;;;;;;;41.70;24.40;;;;;;;4.95;74.79;100963.84;5030781;28;20064;-73
2021/03/04 04:47:13;;;;;;;43.30;24.50;;;;;;;4.97;74.51;100949.97;5009795;28;20045;-73
2021/03/04 04:49:38;;;;;;;40.60;25.05;;;;;;;4.98;74.77;100950.88;5028499;28;20037;-73
2021/03/04 04:52:04;;;;;;;40.83;24.25;;;;;;;5.00;74.65;100957.00;5030741;28;20030;-73
2021/03/04 04:54:29;;;;;;;39.20;22.42;;;;;;;4.97;74.50;100949.09;5030813;28;20510;-73
2021/03/04 04:56:55;;;;;;;42.10;24.65;;;;;;;4.97;75.02;100949.09;5030491;28;20041;-76
2021/03/04 04:59:20;;;;;;;37.05;23.50;;;;;;;5.01;74.65;100940.47;5030758;28;20042;-74
2021/03/04 05:01:45;;;;;;;41.83;24.83;;;;;;;5.04;74.24;100937.91;5030716;28;20045;-74
2021/03/04 05:04:11;;;;;;;42.30;23.55;;;;;;;5.04;74.50;100932.69;5030677;28;20048;-73
2021/03/04 05:06:36;;;;;;;42.08;24.95;;;;;;;5.04;74.32;100924.84;5030355;28;20053;-73
2021/03/04 05:09:02;;;;;;;44.33;25.38;;;;;;;5.06;74.56;100917.91;5012373;28;20051;-74
2021/03/04 05:11:27;;;;;;;42.63;24.75;;;;;;;5.07;73.88;100929.25;5030701;28;20033;-74
2021/03/04 05:13:53;;;;;;;44.90;25.40;;;;;;;5.05;74.30;100919.63;5030589;28;20064;-74
2021/03/04 05:16:18;;;;;;;41.38;26.13;;;;;;;5.04;74.44;100917.88;5030451;28;20636;-74
2021/03/04 05:18:43;;;;;;;39.33;24.25;;;;;;;4.98;74.16;100915.13;5030465;28;20497;-74
2021/03/04 05:21:09;;;;;;;40.17;24.63;;;;;;;4.94;74.64;100920.25;5030559;28;20112;-74
2021/03/04 05:23:35;;;;;;;42.88;24.65;;;;;;;4.89;74.24;100917.50;5012822;28;20179;-74
2021/03/04 05:26:00;;;;;;;41.83;24.75;;;;;;;4.82;74.15;100913.91;5031080;28;20041;-74
2021/03/04 05:28:25;;;;;;;40.63;23.98;;;;;;;4.75;74.48;100911.09;5029514;28;20076;-75
2021/03/04 05:30:52;;;;;;;38.40;22.45;;;;;;;4.68;74.83;100904.81;5033236;28;20041;-75
2021/03/04 05:33:21;;;;;;;40.45;24.95;;;;;;;4.59;75.22;100915.94;5029471;28;20504;-75
2021/03/04 05:35:47;;;;;;;41.22;25.65;;;;;;;4.56;76.04;100917.63;5031525;28;20183;-75
2021/03/04 05:38:12;;;;;;;40.72;25.08;;;;;;;4.54;75.82;100917.56;5033919;28;20459;-74
2021/03/04 05:40:38;;;;;;;42.38;24.85;;;;;;;4.55;75.87;100919.31;5033783;28;20041;-74
2021/03/04 05:43:04;;;;;;;41.65;24.50;;;;;;;4.56;75.71;100925.47;5034054;28;20056;-75
2021/03/04 05:45:30;;;;;;;46.67;26.23;;;;;;;4.48;75.75;100916.53;5033460;28;20045;-74
2021/03/04 05:47:56;;;;;;;45.55;26.75;;;;;;;4.46;75.76;100913.00;5033606;28;20033;-74
2021/03/04 05:50:26;;;;;;;40.15;25.08;;;;;;;4.36;75.70;100915.38;5033736;28;20033;-74
2021/03/04 05:52:58;;;;;;;41.33;24.23;;;;;;;4.34;75.74;100914.44;5033677;28;20446;-73
2021/03/04 05:55:24;;;;;;;41.38;25.58;;;;;;;4.30;76.07;100904.78;5033492;28;20396;-74
2021/03/04 05:57:50;;;;;;;42.42;26.27;;;;;;;4.30;76.01;100915.22;5033442;28;20037;-74
2021/03/04 06:00:16;;;;;;;44.35;27.30;;;;;;;4.21;76.20;100903.66;5033502;28;20033;-74
2021/03/04 06:02:43;;;;;;;40.30;24.10;;;;;;;4.17;76.53;100915.75;5033471;28;20526;-74
2021/03/04 06:05:11;;;;;;;42.08;24.23;;;;;;;4.13;75.93;100914.78;5033030;28;20042;-74
2021/03/04 06:07:37;;;;;;;38.47;22.83;;;;;;;4.11;75.93;100910.34;5033325;28;20037;-74
2021/03/04 06:10:03;;;;;;;43.42;26.17;;;;;;;4.09;76.35;100912.06;5033269;28;20029;-74
2021/03/04 06:12:29;;;;;;;43.53;26.13;;;;;;;4.06;76.19;100909.34;5033358;28;20491;-74
2021/03/04 06:14:55;;;;;;;42.55;24.17;;;;;;;4.04;75.91;100904.13;5024978;28;20032;-74
2021/03/04 06:17:20;;;;;;;40.50;24.50;;;;;;;4.06;76.18;100901.53;5032996;28;20411;-74
2021/03/04 06:19:53;;;;;;;40.28;23.70;;;;;;;4.07;76.43;100903.31;5032874;28;20068;-74
2021/03/04 06:22:23;;;;;;;40.70;25.80;;;;;;;4.08;76.70;100903.34;5033086;28;20041;-74
2021/03/04 06:24:56;;;;;;;42.58;26.10;;;;;;;4.07;76.48;100898.09;5032911;28;20643;-74
2021/03/04 06:27:30;;;;;;;45.85;26.42;;;;;;;4.07;76.47;100908.53;5032909;28;20029;-74
2021/03/04 06:29:57;;;;;;;44.85;26.85;;;;;;;4.06;76.14;100910.28;5024668;28;20053;-74
2021/03/04 06:32:23;;;;;;;48.75;27.10;;;;;;;4.04;77.32;100908.47;5032885;28;20549;-74
2021/03/04 06:35:13;;;;;;;43.85;25.73;;;;;;;4.03;78.13;100902.31;5032763;28;20041;-74
2021/03/04 06:37:40;;;;;;;42.10;24.33;;;;;;;4.06;77.83;100891.97;5031609;28;20069;-74
2021/03/04 06:40:15;;;;;;;45.03;27.75;;;;;;;4.12;77.88;100897.34;5032637;28;20041;-74
2021/03/04 06:42:42;;;;;;;42.83;25.45;;;;;;;4.17;77.66;100897.47;5032656;28;20082;-74
2021/03/04 06:45:20;;;;;;;49.72;28.45;;;;;;;4.18;77.95;100896.63;5032326;28;20463;-74
2021/03/04 06:47:46;;;;;;;46.15;26.02;;;;;;;4.22;77.44;100895.88;5014675;28;20180;-74
2021/03/04 06:50:21;;;;;;;42.60;25.50;;;;;;;4.23;77.55;100899.38;5011586;28;20057;-74
2021/03/04 06:52:46;;;;;;;48.05;25.33;;;;;;;4.24;77.71;100902.00;5031317;28;20132;-74
2021/03/04 06:55:13;;;;;;;42.53;26.38;;;;;;;4.26;77.53;100887.25;5032202;28;20120;-74
2021/03/04 06:57:38;;;;;;;47.88;27.45;;;;;;;4.33;77.46;100891.78;5031136;28;20033;-75
2021/03/04 07:00:18;;;;;;;50.47;29.65;;;;;;;4.37;76.76;100897.97;5032121;28;20424;-74
2021/03/04 07:02:53;;;;;;;45.90;27.20;;;;;;;4.44;76.94;100893.78;5032254;28;20044;-74
2021/03/04 07:05:20;;;;;;;42.08;26.05;;;;;;;4.51;77.00;100890.47;5014216;28;20492;-74
2021/03/04 07:07:50;;;;;;;43.97;27.08;;;;;;;4.60;76.53;100891.56;5032104;28;20063;-74
2021/03/04 07:10:17;;;;;;;45.63;25.92;;;;;;;4.68;76.79;100889.13;5032725;28;20076;-74
2021/03/04 07:12:44;;;;;;;48.45;26.88;;;;;;;4.77;76.65;100888.50;5031696;28;20044;-74
2021/03/04 07:15:12;;;;;;;42.47;26.10;;;;;;;4.91;76.22;100888.78;5031822;28;20045;-74
2021/03/04 07:17:37;;;;;;;45.20;26.90;;;;;;;5.02;75.59;100884.69;5031859;28;20411;-74
2021/03/04 07:20:04;;;;;;;50.97;27.38;;;;;;;5.13;75.77;100871.81;5022436;28;20045;-74
2021/03/04 07:22:32;;;;;;;43.70;28.77;;;;;;;5.19;75.79;100880.69;5014912;28;20033;-74
2021/03/04 07:24:58;;;;;;;53.08;30.65;;;;;;;5.27;75.29;100873.88;5023786;28;20045;-74
2021/03/04 07:27:23;;;;;;;49.15;27.90;;;;;;;5.41;75.41;100881.13;5031700;28;20044;-74
2021/03/04 07:29:48;;;;;;;44.47;26.30;;;;;;;5.49;74.80;100871.69;5013219;28;20081;-74
2021/03/04 07:32:16;;;;;;;41.45;26.00;;;;;;;5.60;74.83;100880.66;5031803;28;20068;-74
2021/03/04 07:34:42;;;;;;;43.25;26.85;;;;;;;5.72;74.32;100878.28;5032075;28;20440;-74
2021/03/04 07:37:09;;;;;;;44.97;27.38;;;;;;;5.92;73.96;100883.00;5031588;28;20545;-74
2021/03/04 07:39:39;;;;;;;45.33;26.92;;;;;;;6.11;73.65;100879.91;5031539;28;20041;-74
2021/03/04 07:42:21;;;;;;;45.13;26.20;;;;;;;6.32;73.01;100879.38;5031545;28;20059;-74
2021/03/04 07:44:48;;;;;;;41.22;25.38;;;;;;;6.50;72.71;100870.94;5031519;28;20032;-74
2021/03/04 07:47:23;;;;;;;42.72;26.55;;;;;;;6.58;72.20;100869.31;5031414;28;20033;-74
2021/03/04 07:49:48;;;;;;;41.00;25.50;;;;;;;6.61;72.37;100875.47;5030947;28;20041;-74
2021/03/04 07:52:19;;;;;;;43.08;24.25;;;;;;;6.64;72.32;100871.13;5031484;28;20037;-74
2021/03/04 07:54:50;;;;;;;43.13;27.92;;;;;;;6.69;72.30;100874.72;5031332;28;20037;-74
2021/03/04 07:57:18;;;;;;;43.65;25.90;;;;;;;6.87;71.88;100863.63;5031103;28;20171;-74
2021/03/04 07:59:54;;;;;;;43.65;27.10;;;;;;;6.99;72.06;100863.78;5031206;28;20413;-74
2021/03/04 08:02:37;;;;;;;51.75;26.38;;;;;;;7.09;71.27;100856.03;5031338;28;20551;-75
2021/03/04 08:05:39;;;;;;;43.30;27.20;;;;;;;7.09;71.30;100858.66;5023917;28;20034;-74
2021/03/04 08:08:17;;;;;;;46.67;27.13;;;;;;;7.04;71.64;100855.97;4950936;28;20125;-74
2021/03/04 08:10:45;;;;;;;42.63;27.40;;;;;;;7.07;71.44;100863.00;5014026;28;20049;-73
2021/03/04 08:13:11;;;;;;;41.15;27.73;;;;;;;7.09;71.61;100858.66;5031191;28;20065;-73
2021/03/04 08:15:45;;;;;;;49.83;28.20;;;;;;;7.16;71.64;100856.13;5013216;28;20061;-73
2021/03/04 08:18:19;;;;;;;43.17;26.27;;;;;;;7.28;70.96;100849.25;5010605;28;20045;-73
2021/03/04 08:20:46;;;;;;;46.35;30.70;;;;;;;7.31;71.01;100850.22;5029830;28;20660;-74
2021/03/04 08:23:11;;;;;;;46.95;28.70;;;;;;;7.30;71.01;100863.31;5031358;28;20069;-72
2021/03/04 08:25:38;;;;;;;50.75;29.85;;;;;;;7.36;70.49;100851.16;5027193;28;20127;-73
2021/03/04 08:28:04;;;;;;;46.10;29.02;;;;;;;7.51;70.37;100852.19;5031111;28;20539;-74
2021/03/04 08:30:38;;;;;;;52.72;32.10;;;;;;;7.53;69.91;100858.34;5031065;28;20037;-74
2021/03/04 08:33:08;;;;;;;62.55;35.13;;;;;;;7.57;69.69;100849.59;5023819;28;20037;-73
2021/03/04 08:35:40;;;;;;;59.42;37.63;;;;;;;7.59;69.47;100850.50;5030690;28;20419;-73
2021/03/04 08:38:08;;;;;;;64.05;38.45;;;;;;;7.65;68.93;100855.81;5012993;28;20080;-73
2021/03/04 08:40:42;;;;;;;62.13;38.08;;;;;;;7.64;69.56;100838.31;5013128;28;20044;-73
2021/03/04 08:43:13;;;;;;;57.42;36.85;;;;;;;7.68;69.01;100834.88;5030861;28;20034;-73
2021/03/04 08:45:38;;;;;;;64.78;39.42;;;;;;;7.74;69.17;100834.03;5030672;28;20439;-73
2021/03/04 08:48:06;;;;;;;64.82;41.10;;;;;;;7.76;69.15;100832.31;5030657;28;20121;-73
2021/03/04 08:50:33;;;;;;;71.25;43.17;;;;;;;7.84;68.70;100834.16;5013174;28;20030;-73
2021/03/04 08:52:59;;;;;;;61.63;42.35;;;;;;;7.95;68.92;100826.38;5030883;28;20039;-73
2021/03/04 08:55:25;;;;;;;75.82;42.58;;;;;;;7.90;68.58;100828.94;5030465;28;20038;-73
2021/03/04 08:57:50;;;;;;;68.55;44.08;;;;;;;7.98;69.37;100828.13;5030557;28;20518;-73
2021/03/04 09:00:17;;;;;;;60.22;39.85;;;;;;;8.01;68.77;100825.53;5030699;28;20037;-74
2021/03/04 09:02:45;;;;;;;64.22;41.28;;;;;;;8.14;68.38;100816.88;5000176;28;20067;-73
2021/03/04 09:05:10;;;;;;;65.72;41.17;;;;;;;8.26;67.88;100814.38;5034102;28;20037;-73
2021/03/04 09:07:44;;;;;;;61.25;40.10;;;;;;;8.48;67.13;100811.91;5034425;28;20565;-74
2021/03/04 09:10:11;;;;;;;64.63;40.97;;;;;;;8.62;67.61;100805.00;5034405;28;20042;-74
2021/03/04 09:12:46;;;;;;;64.43;42.50;;;;;;;8.56;66.31;100799.69;5034420;28;20045;-74
2021/03/04 09:15:15;;;;;;;66.85;40.97;;;;;;;8.50;67.69;100810.19;5034155;28;20476;-73
2021/03/04 09:17:42;;;;;;;65.80;42.95;;;;;;;8.55;67.53;100801.44;5014476;28;20038;-73
2021/03/04 09:20:10;;;;;;;64.63;41.92;;;;;;;8.78;66.93;100809.50;5034312;28;20033;-74
2021/03/04 09:22:35;;;;;;;67.82;42.08;;;;;;;8.72;66.86;100804.19;5033798;28;20037;-73
2021/03/04 09:25:03;;;;;;;70.47;45.25;;;;;;;8.81;67.05;100802.50;5033796;28;20099;-74
2021/03/04 09:27:28;;;;;;;70.72;45.53;;;;;;;8.86;66.52;100808.66;5033941;28;20037;-73
2021/03/04 09:29:54;;;;;;;68.70;43.40;;;;;;;8.68;66.13;100814.69;5033877;28;20479;-73
2021/03/04 09:32:30;;;;;;;71.95;44.38;;;;;;;8.73;66.66;100805.94;5033981;28;20039;-73
2021/03/04 09:34:55;;;;;;;73.60;46.92;;;;;;;8.84;66.12;100813.03;5016301;28;20029;-73
2021/03/04 09:37:25;;;;;;;73.82;49.00;;;;;;;8.76;66.62;100805.09;5033673;28;20087;-74
2021/03/04 09:39:53;;;;;;;71.07;46.83;;;;;;;8.90;66.75;100818.31;5033724;28;20142;-74
2021/03/04 09:42:21;;;;;;;73.07;43.35;;;;;;;8.77;66.23;100815.59;5033811;28;20037;-74
2021/03/04 09:44:57;;;;;;;75.45;45.75;;;;;;;8.65;67.15;100812.91;5033603;28;20091;-74
2021/03/04 09:47:30;;;;;;;70.00;43.60;;;;;;;8.46;67.62;100801.41;5033669;28;20025;-73
2021/03/04 09:49:56;;;;;;;;;;;;;;;8.39;68.08;100809.22;5034055;28;20037;-74
2021/03/04 09:52:24;;;;;;;74.90;45.05;;;;;;;8.55;68.30;100805.84;5033640;28;20399;-73
2021/03/04 09:54:51;;;;;;;71.43;45.40;;;;;;;8.54;67.03;100806.69;5033458;28;20033;-73
2021/03/04 09:57:20;;;;;;;67.97;45.65;;;;;;;8.62;67.21;100806.75;5033284;28;20041;-73
2021/03/04 09:59:51;;;;;;;77.63;50.00;;;;;;;8.66;66.48;100808.53;5033435;28;20038;-73
2021/03/04 10:02:17;;;;;;;77.18;51.03;;;;;;;8.61;66.96;100812.88;5033496;28;20045;-73
2021/03/04 10:05:01;;;;;;;84.75;55.67;;;;;;;8.82;66.46;100814.75;5033332;28;20037;-74
2021/03/04 10:07:28;;;;;;;85.22;55.10;;;;;;;8.96;65.85;100805.16;5012278;28;20504;-74
2021/03/04 10:09:54;;;;;;;79.22;50.95;;;;;;;8.93;65.86;100808.69;5032803;28;20030;-74
2021/03/04 10:12:20;;;;;;;80.20;53.65;;;;;;;8.97;65.87;100805.19;5033004;28;20095;-74
2021/03/04 10:14:47;;;;;;;82.95;54.35;;;;;;;9.08;65.67;100812.25;5033161;28;20061;-74
2021/03/04 10:17:13;;;;;;;81.95;53.47;;;;;;;9.05;65.75;100812.25;5032858;28;20518;-73
2021/03/04 10:19:39;;;;;;;80.97;54.67;;;;;;;9.10;65.32;100805.25;5033030;28;20057;-73
2021/03/04 10:22:06;;;;;;;82.82;52.97;;;;;;;9.14;65.26;100802.66;5012141;28;20077;-74
2021/03/04 10:24:31;;;;;;;83.97;56.55;;;;;;;9.22;65.82;100802.66;5012179;28;20037;-73
2021/03/04 10:26:58;;;;;;;84.25;53.05;;;;;;;9.19;65.26;100795.63;5032711;28;20034;-74
2021/03/04 10:29:25;;;;;;;81.55;53.75;;;;;;;9.20;64.64;100802.66;5011900;28;20480;-74
2021/03/04 10:31:50;;;;;;;79.47;53.00;;;;;;;9.10;65.63;100803.50;5032237;28;20139;-73
2021/03/04 10:34:16;;;;;;;86.72;54.28;;;;;;;9.02;65.53;100802.59;5032826;28;20061;-73
2021/03/04 10:36:41;;;;;;;84.03;53.22;;;;;;;8.94;65.66;100807.81;5032459;28;20131;-73
2021/03/04 10:39:06;;;;;;;81.38;55.67;;;;;;;8.78;66.71;100803.34;5032627;28;20087;-74
2021/03/04 10:41:32;;;;;;;82.88;54.35;;;;;;;8.87;66.08;100803.38;5032711;28;20040;-73
2021/03/04 10:43:57;;;;;;;87.97;56.28;;;;;;;8.65;66.37;100799.75;5032677;28;20044;-73
2021/03/04 10:46:22;;;;;;;85.05;57.95;;;;;;;8.61;67.05;100805.88;5032462;28;20033;-73
2021/03/04 10:48:48;;;;;;;84.20;55.85;;;;;;;8.50;66.77;100802.28;5032375;28;20041;-74
2021/03/04 10:51:13;;;;;;;82.63;57.30;;;;;;;8.34;66.97;100798.66;5032412;28;20514;-73
2021/03/04 10:53:38;;;;;;;87.93;59.38;;;;;;;8.24;68.15;100799.44;5032447;28;20041;-74
2021/03/04 10:56:04;;;;;;;87.05;58.55;;;;;;;8.19;67.42;100802.03;5031802;28;20040;-74
2021/03/04 10:58:29;;;;;;;92.65;59.05;;;;;;;8.12;68.03;100810.72;5031337;28;20034;-74
2021/03/04 11:00:54;;;;;;;86.28;55.45;;;;;;;8.01;68.45;100807.13;5031173;28;20488;-74
2021/03/04 11:03:20;;;;;;;87.80;58.10;;;;;;;8.00;68.44;100800.13;5032615;28;20542;-74
2021/03/04 11:05:45;;;;;;;90.00;57.42;;;;;;;8.09;68.93;100789.66;5031301;28;20025;-74
2021/03/04 11:08:12;;;;;;;90.63;58.28;;;;;;;8.17;68.43;100802.88;5032072;28;20033;-74
2021/03/04 11:10:37;;;;;;;92.20;58.95;;;;;;;8.02;68.75;100799.28;5032136;28;20037;-73
2021/03/04 11:13:02;;;;;;;97.35;59.33;;;;;;;8.00;68.80;100789.63;5032064;28;20045;-74
2021/03/04 11:15:28;;;;;;;90.00;58.28;;;;;;;7.89;69.26;100792.16;5031466;28;20029;-73
2021/03/04 11:17:53;;;;;;;88.55;57.90;;;;;;;7.85;69.42;100792.97;5028208;28;20038;-73
2021/03/04 11:20:19;;;;;;;88.90;56.47;;;;;;;7.82;69.61;100785.94;5026861;28;20404;-76